sensor_id;sensor_type;location;lat;lon;timestamp;temperature;humidity
949;DHT22;461;51.436;7.312;2023-11-21T00:00:35;8.80;99.90
949;DHT22;461;51.436;7.312;2023-11-21T00:03:00;8.70;99.90
949;DHT22;461;51.436;7.312;2023-11-21T00:05:26;8.70;99.90
949;DHT22;461;51.436;7.312;2023-11-21T00:07:52;8.70;99.90
949;DHT22;461;51.436;7.312;2023-11-21T00:10:18;8.70;99.90
949;DHT22;461;51.436;7.312;2023-11-21T00:12:44;8.60;99.90
949;DHT22;461;51.436;7.312;2023-11-21T00:15:14;8.60;99.90
949;DHT22;461;51.436;7.312;2023-11-21T00:17:44;8.60;99.90
949;DHT22;461;51.436;7.312;2023-11-21T00:20:10;8.60;99.90
949;DHT22;461;51.436;7.312;2023-11-21T00:22:38;8.60;99.90
949;DHT22;461;51.436;7.312;2023-11-21T00:27:35;8.80;99.90
949;DHT22;461;51.436;7.312;2023-11-21T00:30:10;8.80;99.90
949;DHT22;461;51.436;7.312;2023-11-21T00:32:39;8.70;99.90
949;DHT22;461;51.436;7.312;2023-11-21T00:35:14;8.60;99.90
949;DHT22;461;51.436;7.312;2023-11-21T00:37:41;8.60;99.90
949;DHT22;461;51.436;7.312;2023-11-21T00:40:11;8.70;99.90
949;DHT22;461;51.436;7.312;2023-11-21T00:42:37;8.70;99.90
949;DHT22;461;51.436;7.312;2023-11-21T00:45:03;8.80;99.90
949;DHT22;461;51.436;7.312;2023-11-21T00:47:29;8.80;99.90
949;DHT22;461;51.436;7.312;2023-11-21T00:49:55;8.80;99.90
949;DHT22;461;51.436;7.312;2023-11-21T01:09:30;8.90;99.90
949;DHT22;461;51.436;7.312;2023-11-21T01:11:56;8.80;99.90
949;DHT22;461;51.436;7.312;2023-11-21T01:14:22;8.80;99.90
949;DHT22;461;51.436;7.312;2023-11-21T01:16:48;8.90;99.90
949;DHT22;461;51.436;7.312;2023-11-21T01:19:14;9.00;99.90
949;DHT22;461;51.436;7.312;2023-11-21T01:21:40;8.90;99.90
949;DHT22;461;51.436;7.312;2023-11-21T01:24:06;9.00;99.90
949;DHT22;461;51.436;7.312;2023-11-21T01:26:33;9.00;99.90
949;DHT22;461;51.436;7.312;2023-11-21T01:28:59;9.00;99.90
949;DHT22;461;51.436;7.312;2023-11-21T01:31:25;9.00;99.90
949;DHT22;461;51.436;7.312;2023-11-21T01:33:55;9.00;99.90
949;DHT22;461;51.436;7.312;2023-11-21T01:36:20;8.90;99.90
949;DHT22;461;51.436;7.312;2023-11-21T01:38:47;8.90;99.90
949;DHT22;461;51.436;7.312;2023-11-21T01:41:14;8.90;99.90
949;DHT22;461;51.436;7.312;2023-11-21T01:43:41;8.90;99.90
949;DHT22;461;51.436;7.312;2023-11-21T01:46:08;8.90;99.90
949;DHT22;461;51.436;7.312;2023-11-21T01:48:34;8.90;99.90
949;DHT22;461;51.436;7.312;2023-11-21T01:51:01;8.90;99.90
949;DHT22;461;51.436;7.312;2023-11-21T01:53:28;8.90;99.90
949;DHT22;461;51.436;7.312;2023-11-21T01:55:55;8.90;99.90
949;DHT22;461;51.436;7.312;2023-11-21T01:58:22;8.90;99.90
949;DHT22;461;51.436;7.312;2023-11-21T02:00:48;8.90;99.90
949;DHT22;461;51.436;7.312;2023-11-21T02:03:16;8.90;99.90
949;DHT22;461;51.436;7.312;2023-11-21T02:05:42;9.00;99.90
949;DHT22;461;51.436;7.312;2023-11-21T02:08:08;9.00;99.90
949;DHT22;461;51.436;7.312;2023-11-21T02:10:35;9.00;99.90
949;DHT22;461;51.436;7.312;2023-11-21T02:13:02;8.90;99.90
949;DHT22;461;51.436;7.312;2023-11-21T02:15:29;9.00;99.90
949;DHT22;461;51.436;7.312;2023-11-21T02:17:55;8.90;99.90
949;DHT22;461;51.436;7.312;2023-11-21T02:20:23;9.00;99.90
949;DHT22;461;51.436;7.312;2023-11-21T02:22:51;9.00;99.90
949;DHT22;461;51.436;7.312;2023-11-21T02:25:27;8.90;99.90
949;DHT22;461;51.436;7.312;2023-11-21T02:27:54;8.90;99.90
949;DHT22;461;51.436;7.312;2023-11-21T02:30:21;8.90;99.90
949;DHT22;461;51.436;7.312;2023-11-21T02:32:49;8.90;99.90
949;DHT22;461;51.436;7.312;2023-11-21T02:35:19;8.90;99.90
949;DHT22;461;51.436;7.312;2023-11-21T02:37:47;8.90;99.90
949;DHT22;461;51.436;7.312;2023-11-21T02:40:13;8.90;99.90
949;DHT22;461;51.436;7.312;2023-11-21T02:42:43;8.90;99.90
949;DHT22;461;51.436;7.312;2023-11-21T02:45:09;8.90;99.90
949;DHT22;461;51.436;7.312;2023-11-21T02:47:38;8.90;99.90
949;DHT22;461;51.436;7.312;2023-11-21T02:50:04;8.90;99.90
949;DHT22;461;51.436;7.312;2023-11-21T02:52:31;8.80;99.90
949;DHT22;461;51.436;7.312;2023-11-21T02:54:58;8.80;99.90
949;DHT22;461;51.436;7.312;2023-11-21T02:57:24;8.80;99.90
949;DHT22;461;51.436;7.312;2023-11-21T02:59:50;8.70;99.90
949;DHT22;461;51.436;7.312;2023-11-21T03:02:16;8.80;99.90
949;DHT22;461;51.436;7.312;2023-11-21T03:04:42;8.80;99.90
949;DHT22;461;51.436;7.312;2023-11-21T03:07:09;8.90;99.90
949;DHT22;461;51.436;7.312;2023-11-21T03:09:35;9.00;99.90
949;DHT22;461;51.436;7.312;2023-11-21T03:12:01;9.00;99.90
949;DHT22;461;51.436;7.312;2023-11-21T03:14:27;9.10;99.90
949;DHT22;461;51.436;7.312;2023-11-21T03:16:53;9.10;99.90
949;DHT22;461;51.436;7.312;2023-11-21T03:19:18;9.10;99.90
949;DHT22;461;51.436;7.312;2023-11-21T03:21:44;9.10;99.90
949;DHT22;461;51.436;7.312;2023-11-21T03:24:10;9.20;99.90
949;DHT22;461;51.436;7.312;2023-11-21T03:26:36;9.20;99.90
949;DHT22;461;51.436;7.312;2023-11-21T03:29:03;9.30;99.90
949;DHT22;461;51.436;7.312;2023-11-21T03:31:30;9.30;99.90
949;DHT22;461;51.436;7.312;2023-11-21T03:33:57;9.20;99.90
949;DHT22;461;51.436;7.312;2023-11-21T03:36:22;9.20;99.90
949;DHT22;461;51.436;7.312;2023-11-21T03:38:50;9.10;99.90
949;DHT22;461;51.436;7.312;2023-11-21T03:41:16;9.10;99.90
949;DHT22;461;51.436;7.312;2023-11-21T03:43:42;9.00;99.90
949;DHT22;461;51.436;7.312;2023-11-21T03:46:08;9.00;99.90
949;DHT22;461;51.436;7.312;2023-11-21T03:48:33;8.90;99.90
949;DHT22;461;51.436;7.312;2023-11-21T03:50:59;8.90;99.90
949;DHT22;461;51.436;7.312;2023-11-21T03:53:25;8.90;99.90
949;DHT22;461;51.436;7.312;2023-11-21T03:55:51;8.90;99.90
949;DHT22;461;51.436;7.312;2023-11-21T03:58:16;8.90;99.90
949;DHT22;461;51.436;7.312;2023-11-21T04:00:42;8.90;99.90
949;DHT22;461;51.436;7.312;2023-11-21T04:03:08;8.90;99.90
949;DHT22;461;51.436;7.312;2023-11-21T04:05:34;8.90;99.90
949;DHT22;461;51.436;7.312;2023-11-21T04:07:59;9.00;99.90
949;DHT22;461;51.436;7.312;2023-11-21T04:10:25;9.00;99.90
949;DHT22;461;51.436;7.312;2023-11-21T04:12:51;9.00;99.90
949;DHT22;461;51.436;7.312;2023-11-21T04:15:17;9.00;99.90
949;DHT22;461;51.436;7.312;2023-11-21T04:17:43;9.00;99.90
949;DHT22;461;51.436;7.312;2023-11-21T04:20:09;9.00;99.90
949;DHT22;461;51.436;7.312;2023-11-21T04:22:43;9.00;99.90
949;DHT22;461;51.436;7.312;2023-11-21T04:25:10;9.00;99.90
949;DHT22;461;51.436;7.312;2023-11-21T04:27:40;9.10;99.90
949;DHT22;461;51.436;7.312;2023-11-21T04:30:06;9.10;99.90
949;DHT22;461;51.436;7.312;2023-11-21T04:32:33;9.10;99.90
949;DHT22;461;51.436;7.312;2023-11-21T04:34:59;9.10;99.90
949;DHT22;461;51.436;7.312;2023-11-21T04:37:25;9.10;99.90
949;DHT22;461;51.436;7.312;2023-11-21T04:39:50;9.10;99.90
949;DHT22;461;51.436;7.312;2023-11-21T04:42:17;9.10;99.90
949;DHT22;461;51.436;7.312;2023-11-21T04:44:43;9.10;99.90
949;DHT22;461;51.436;7.312;2023-11-21T04:47:10;9.20;99.90
949;DHT22;461;51.436;7.312;2023-11-21T04:49:35;9.20;99.90
949;DHT22;461;51.436;7.312;2023-11-21T04:52:01;9.20;99.90
949;DHT22;461;51.436;7.312;2023-11-21T04:54:30;9.30;99.90
949;DHT22;461;51.436;7.312;2023-11-21T04:56:56;9.30;99.90
949;DHT22;461;51.436;7.312;2023-11-21T04:59:22;9.30;99.90
949;DHT22;461;51.436;7.312;2023-11-21T05:01:50;9.20;99.90
949;DHT22;461;51.436;7.312;2023-11-21T05:04:16;9.30;99.90
949;DHT22;461;51.436;7.312;2023-11-21T05:06:42;9.30;99.90
949;DHT22;461;51.436;7.312;2023-11-21T05:09:08;9.30;99.90
949;DHT22;461;51.436;7.312;2023-11-21T05:11:37;9.40;99.90
949;DHT22;461;51.436;7.312;2023-11-21T05:14:03;9.40;99.90
949;DHT22;461;51.436;7.312;2023-11-21T05:16:30;9.40;99.90
949;DHT22;461;51.436;7.312;2023-11-21T05:18:57;9.40;99.90
949;DHT22;461;51.436;7.312;2023-11-21T05:21:26;9.40;99.90
949;DHT22;461;51.436;7.312;2023-11-21T05:23:52;9.40;99.90
949;DHT22;461;51.436;7.312;2023-11-21T05:26:18;9.30;99.90
949;DHT22;461;51.436;7.312;2023-11-21T05:28:43;9.30;99.90
949;DHT22;461;51.436;7.312;2023-11-21T05:31:09;9.40;99.90
949;DHT22;461;51.436;7.312;2023-11-21T05:33:36;9.50;99.90
949;DHT22;461;51.436;7.312;2023-11-21T05:36:02;9.50;99.90
949;DHT22;461;51.436;7.312;2023-11-21T05:38:28;9.50;99.90
949;DHT22;461;51.436;7.312;2023-11-21T05:40:54;9.40;99.90
949;DHT22;461;51.436;7.312;2023-11-21T05:43:19;9.40;99.90
949;DHT22;461;51.436;7.312;2023-11-21T05:45:45;9.30;99.90
949;DHT22;461;51.436;7.312;2023-11-21T05:48:11;9.20;99.90
949;DHT22;461;51.436;7.312;2023-11-21T05:50:38;9.20;99.90
949;DHT22;461;51.436;7.312;2023-11-21T05:53:04;9.30;99.90
949;DHT22;461;51.436;7.312;2023-11-21T05:55:30;9.30;99.90
949;DHT22;461;51.436;7.312;2023-11-21T05:57:56;9.20;99.90
949;DHT22;461;51.436;7.312;2023-11-21T06:00:22;9.20;99.90
949;DHT22;461;51.436;7.312;2023-11-21T06:02:49;9.10;99.90
949;DHT22;461;51.436;7.312;2023-11-21T06:05:23;9.00;99.90
949;DHT22;461;51.436;7.312;2023-11-21T06:07:49;9.00;99.90
949;DHT22;461;51.436;7.312;2023-11-21T06:10:15;9.00;99.90
949;DHT22;461;51.436;7.312;2023-11-21T06:12:43;9.10;99.90
949;DHT22;461;51.436;7.312;2023-11-21T06:15:10;9.10;99.90
949;DHT22;461;51.436;7.312;2023-11-21T06:17:39;9.10;99.90
949;DHT22;461;51.436;7.312;2023-11-21T06:20:07;9.10;99.90
949;DHT22;461;51.436;7.312;2023-11-21T06:22:44;9.10;99.90
949;DHT22;461;51.436;7.312;2023-11-21T06:25:17;9.20;99.90
949;DHT22;461;51.436;7.312;2023-11-21T06:27:56;9.10;99.90
949;DHT22;461;51.436;7.312;2023-11-21T06:34:00;9.00;99.90
949;DHT22;461;51.436;7.312;2023-11-21T06:36:35;8.90;99.90
949;DHT22;461;51.436;7.312;2023-11-21T06:39:05;8.80;99.90
949;DHT22;461;51.436;7.312;2023-11-21T06:41:33;8.70;99.90
949;DHT22;461;51.436;7.312;2023-11-21T06:44:07;8.70;99.90
949;DHT22;461;51.436;7.312;2023-11-21T06:46:34;8.70;99.90
949;DHT22;461;51.436;7.312;2023-11-21T06:59:52;8.90;99.90
949;DHT22;461;51.436;7.312;2023-11-21T07:02:27;9.00;99.90
949;DHT22;461;51.436;7.312;2023-11-21T07:04:58;9.00;99.90
949;DHT22;461;51.436;7.312;2023-11-21T07:07:33;9.00;99.90
949;DHT22;461;51.436;7.312;2023-11-21T07:12:40;9.00;99.90
949;DHT22;461;51.436;7.312;2023-11-21T07:15:11;8.90;99.90
949;DHT22;461;51.436;7.312;2023-11-21T07:17:38;8.90;99.90
949;DHT22;461;51.436;7.312;2023-11-21T07:22:59;8.90;99.90
949;DHT22;461;51.436;7.312;2023-11-21T07:25:37;8.90;99.90
949;DHT22;461;51.436;7.312;2023-11-21T07:28:25;8.90;99.90
949;DHT22;461;51.436;7.312;2023-11-21T07:30:56;8.90;99.90
949;DHT22;461;51.436;7.312;2023-11-21T07:33:32;8.90;99.90
949;DHT22;461;51.436;7.312;2023-11-21T07:36:02;9.00;99.90
949;DHT22;461;51.436;7.312;2023-11-21T07:38:35;9.00;99.90
949;DHT22;461;51.436;7.312;2023-11-21T07:41:05;9.00;99.90
949;DHT22;461;51.436;7.312;2023-11-21T07:43:42;9.00;99.90
949;DHT22;461;51.436;7.312;2023-11-21T07:46:12;9.00;99.90
949;DHT22;461;51.436;7.312;2023-11-21T07:48:39;9.10;99.90
949;DHT22;461;51.436;7.312;2023-11-21T07:51:15;9.10;99.90
949;DHT22;461;51.436;7.312;2023-11-21T07:54:07;9.10;99.90
949;DHT22;461;51.436;7.312;2023-11-21T07:56:36;9.30;99.90
949;DHT22;461;51.436;7.312;2023-11-21T07:59:02;9.40;99.90
949;DHT22;461;51.436;7.312;2023-11-21T08:01:28;9.50;99.90
949;DHT22;461;51.436;7.312;2023-11-21T08:03:54;9.50;99.90
949;DHT22;461;51.436;7.312;2023-11-21T08:06:23;9.40;99.90
949;DHT22;461;51.436;7.312;2023-11-21T08:08:49;9.50;99.90
949;DHT22;461;51.436;7.312;2023-11-21T08:11:15;9.50;99.90
949;DHT22;461;51.436;7.312;2023-11-21T08:13:42;9.50;99.90
949;DHT22;461;51.436;7.312;2023-11-21T08:16:14;9.60;99.90
949;DHT22;461;51.436;7.312;2023-11-21T08:18:46;9.50;99.90
949;DHT22;461;51.436;7.312;2023-11-21T08:21:18;9.50;99.90
949;DHT22;461;51.436;7.312;2023-11-21T08:23:53;9.50;99.90
949;DHT22;461;51.436;7.312;2023-11-21T08:26:32;9.50;99.90
949;DHT22;461;51.436;7.312;2023-11-21T08:29:04;9.60;99.90
949;DHT22;461;51.436;7.312;2023-11-21T08:31:32;9.60;99.90
949;DHT22;461;51.436;7.312;2023-11-21T08:33:58;9.60;99.90
949;DHT22;461;51.436;7.312;2023-11-21T08:36:25;9.60;99.90
949;DHT22;461;51.436;7.312;2023-11-21T08:38:51;9.60;99.90
949;DHT22;461;51.436;7.312;2023-11-21T08:41:20;9.70;99.90
949;DHT22;461;51.436;7.312;2023-11-21T08:43:53;9.70;99.90
949;DHT22;461;51.436;7.312;2023-11-21T08:46:20;9.80;99.90
949;DHT22;461;51.436;7.312;2023-11-21T08:48:47;9.70;99.90
949;DHT22;461;51.436;7.312;2023-11-21T08:51:13;9.80;99.90
949;DHT22;461;51.436;7.312;2023-11-21T08:53:39;9.80;99.90
949;DHT22;461;51.436;7.312;2023-11-21T08:56:05;9.80;99.90
949;DHT22;461;51.436;7.312;2023-11-21T08:58:31;9.80;99.90
949;DHT22;461;51.436;7.312;2023-11-21T09:01:02;9.90;99.90
949;DHT22;461;51.436;7.312;2023-11-21T09:03:28;9.90;99.90
949;DHT22;461;51.436;7.312;2023-11-21T09:05:54;9.90;99.90
949;DHT22;461;51.436;7.312;2023-11-21T09:08:20;9.90;99.90
949;DHT22;461;51.436;7.312;2023-11-21T09:10:47;10.00;99.90
949;DHT22;461;51.436;7.312;2023-11-21T09:13:13;10.10;99.90
949;DHT22;461;51.436;7.312;2023-11-21T09:15:42;10.10;99.90
949;DHT22;461;51.436;7.312;2023-11-21T09:18:09;10.10;99.90
949;DHT22;461;51.436;7.312;2023-11-21T09:20:36;10.10;99.90
949;DHT22;461;51.436;7.312;2023-11-21T09:23:02;10.10;99.90
949;DHT22;461;51.436;7.312;2023-11-21T09:25:32;10.20;99.90
949;DHT22;461;51.436;7.312;2023-11-21T09:28:01;10.20;99.90
949;DHT22;461;51.436;7.312;2023-11-21T09:30:27;10.20;99.90
949;DHT22;461;51.436;7.312;2023-11-21T09:32:56;10.30;99.90
949;DHT22;461;51.436;7.312;2023-11-21T09:35:24;10.40;99.90
949;DHT22;461;51.436;7.312;2023-11-21T09:37:49;10.40;99.90
949;DHT22;461;51.436;7.312;2023-11-21T09:40:21;10.40;99.90
949;DHT22;461;51.436;7.312;2023-11-21T09:42:57;10.40;99.90
949;DHT22;461;51.436;7.312;2023-11-21T09:45:45;10.50;99.90
949;DHT22;461;51.436;7.312;2023-11-21T09:51:11;10.60;99.90
949;DHT22;461;51.436;7.312;2023-11-21T09:54:01;10.60;99.90
949;DHT22;461;51.436;7.312;2023-11-21T13:07:51;11.20;99.90
949;DHT22;461;51.436;7.312;2023-11-21T13:16:02;11.00;99.90
949;DHT22;461;51.436;7.312;2023-11-21T13:25:07;10.90;99.90
949;DHT22;461;51.436;7.312;2023-11-21T16:37:39;8.80;99.90
949;DHT22;461;51.436;7.312;2023-11-21T16:40:23;8.60;99.90
949;DHT22;461;51.436;7.312;2023-11-21T16:43:01;8.40;99.90
949;DHT22;461;51.436;7.312;2023-11-21T16:49:20;8.30;99.90
949;DHT22;461;51.436;7.312;2023-11-21T16:51:46;8.40;99.90
949;DHT22;461;51.436;7.312;2023-11-21T16:54:18;8.30;99.90
949;DHT22;461;51.436;7.312;2023-11-21T16:56:50;8.30;99.90
949;DHT22;461;51.436;7.312;2023-11-21T17:47:56;7.90;99.90
949;DHT22;461;51.436;7.312;2023-11-21T17:50:37;7.80;99.90
949;DHT22;461;51.436;7.312;2023-11-21T17:56:55;7.60;99.90
949;DHT22;461;51.436;7.312;2023-11-21T17:59:42;7.50;99.90
949;DHT22;461;51.436;7.312;2023-11-21T18:02:21;7.50;99.90
949;DHT22;461;51.436;7.312;2023-11-21T18:05:33;7.40;99.90
949;DHT22;461;51.436;7.312;2023-11-21T18:13:20;7.30;99.90
949;DHT22;461;51.436;7.312;2023-11-21T18:15:49;7.50;99.90
949;DHT22;461;51.436;7.312;2023-11-21T18:18:30;7.60;99.90
949;DHT22;461;51.436;7.312;2023-11-21T18:24:49;7.70;99.90
949;DHT22;461;51.436;7.312;2023-11-21T18:28:11;7.60;99.90
949;DHT22;461;51.436;7.312;2023-11-21T19:08:27;7.80;99.90
949;DHT22;461;51.436;7.312;2023-11-21T19:11:02;7.80;99.90
949;DHT22;461;51.436;7.312;2023-11-21T19:13:28;7.80;99.90
949;DHT22;461;51.436;7.312;2023-11-21T19:15:54;7.80;99.90
949;DHT22;461;51.436;7.312;2023-11-21T19:18:22;7.70;99.90
949;DHT22;461;51.436;7.312;2023-11-21T19:20:56;7.70;99.90
949;DHT22;461;51.436;7.312;2023-11-21T19:23:22;7.70;99.90
949;DHT22;461;51.436;7.312;2023-11-21T19:25:51;7.80;99.90
949;DHT22;461;51.436;7.312;2023-11-21T19:28:20;7.70;99.90
949;DHT22;461;51.436;7.312;2023-11-21T19:30:47;7.70;99.90
949;DHT22;461;51.436;7.312;2023-11-21T19:33:34;7.70;99.90
949;DHT22;461;51.436;7.312;2023-11-21T19:40:14;7.70;99.90
949;DHT22;461;51.436;7.312;2023-11-21T19:42:48;7.60;99.90
949;DHT22;461;51.436;7.312;2023-11-21T19:45:13;7.50;99.90
949;DHT22;461;51.436;7.312;2023-11-21T21:09:44;7.60;99.90
949;DHT22;461;51.436;7.312;2023-11-21T22:45:39;7.40;99.90
949;DHT22;461;51.436;7.312;2023-11-21T22:48:45;7.30;99.90
949;DHT22;461;51.436;7.312;2023-11-21T22:51:19;7.20;99.90
949;DHT22;461;51.436;7.312;2023-11-21T22:53:59;7.30;99.90
949;DHT22;461;51.436;7.312;2023-11-21T22:56:27;7.30;99.90
949;DHT22;461;51.436;7.312;2023-11-21T23:27:45;7.30;99.90
949;DHT22;461;51.436;7.312;2023-11-21T23:30:16;7.10;99.90
949;DHT22;461;51.436;7.312;2023-11-21T23:32:46;7.10;99.90
949;DHT22;461;51.436;7.312;2023-11-21T23:55:20;7.00;99.90
949;DHT22;461;51.436;7.312;2023-11-21T23:57:49;7.00;99.90
